Crystal Serenity — C6SY3 — position and weather

sailwx.info

Track history (hours):
 
Tides and Currents Weather Stations Pressure Air Temp Water Temp Dewpoint Dewpoint Depression Visibility Wind Speed Wind Dir Waves Ship Positions

Crystal Serenity

Operator: Crystal Cruises

Last reported at 2019-Sep-21 23:23 UTC. Time now 2019-Sep-21 23:40 UTC.
Position N 45°26' E 012°18'.

Length 250 m; draft 7.5 m.

Type: Passenger vessel. MMSI: 311536000.

Date/timePositionNaut miles runAvg speedWind from/ knotsBaromVisibWave heightAir tempDewpointWater temp
2019-Sep-21 23:23N 45°26' E 012°18'0 0.0
2019-Sep-21 22:59N 45°26' E 012°18'0 0.0
2019-Sep-21 22:29N 45°26' E 012°18'0 0.0
2019-Sep-21 21:59N 45°26' E 012°18'0 0.0
2019-Sep-21 21:29N 45°26' E 012°18'2 4.3
2019-Sep-21 21:00N 45°24' E 012°18'2454.6 180 / 41023.0 19.0 22.0
2019-Sep-21 20:59N 45°26' E 012°18'0 0.0
2019-Sep-21 20:29N 45°26' E 012°18'0 0.0
2019-Sep-21 19:59N 45°26' E 012°18'0 0.0
2019-Sep-21 19:29N 45°26' E 012°18'0 0.0
2019-Sep-21 18:59N 45°26' E 012°18'0 0.0
2019-Sep-21 18:29N 45°26' E 012°18'0 0.0
2019-Sep-21 17:59N 45°26' E 012°18'0 0.0
2019-Sep-21 17:29N 45°26' E 012°18'0 0.0
2019-Sep-21 16:59N 45°26' E 012°18'0 0.0
2019-Sep-21 16:29N 45°26' E 012°18'0 0.0
2019-Sep-21 15:59N 45°26' E 012°18'0 0.0
2019-Sep-21 15:29N 45°26' E 012°18'0 0.0
2019-Sep-21 14:59N 45°26' E 012°18'0 0.0
2019-Sep-21 14:29N 45°26' E 012°18'0 0.0
2019-Sep-21 13:59N 45°26' E 012°18'0 0.0
2019-Sep-21 13:29N 45°26' E 012°18'0 0.0
2019-Sep-21 12:59N 45°26' E 012°18'0 0.0
2019-Sep-21 12:29N 45°26' E 012°18'0 0.0
2019-Sep-21 11:59N 45°26' E 012°18'0 0.0
2019-Sep-21 11:29N 45°26' E 012°18'0 0.0
2019-Sep-21 10:59N 45°26' E 012°18'0 0.0
2019-Sep-21 10:29N 45°26' E 012°18'0 0.0
2019-Sep-21 09:59N 45°26' E 012°18'0 0.0
2019-Sep-21 09:29N 45°26' E 012°18'0 0.0
2019-Sep-21 08:59N 45°26' E 012°18'0 0.0
2019-Sep-21 08:29N 45°26' E 012°18'0 0.0
2019-Sep-21 07:59N 45°26' E 012°18'0 0.0
2019-Sep-21 07:29N 45°26' E 012°18'0 0.0
2019-Sep-21 06:59N 45°26' E 012°18'0 0.0
2019-Sep-21 06:29N 45°26' E 012°18'0 0.0
2019-Sep-21 05:59N 45°26' E 012°18'0 0.0
2019-Sep-21 05:29N 45°26' E 012°18'0 0.0
2019-Sep-21 04:59N 45°26' E 012°18'0 0.0
2019-Sep-21 04:29N 45°26' E 012°18'0 0.0
2019-Sep-21 03:59N 45°26' E 012°18'0 0.0
2019-Sep-21 03:29N 45°26' E 012°18'0 0.0
2019-Sep-21 02:59N 45°26' E 012°18'0 0.0
2019-Sep-21 02:29N 45°26' E 012°18'0 0.0
2019-Sep-21 01:59N 45°26' E 012°18'0 0.0
2019-Sep-21 01:29N 45°26' E 012°18'0 0.0
2019-Sep-21 00:59N 45°26' E 012°18'0 0.0
2019-Sep-21 00:29N 45°26' E 012°18'0 0.0
2019-Sep-20 23:59N 45°26' E 012°18'0 0.0
2019-Sep-20 23:29N 45°26' E 012°18'2 4.3
2019-Sep-20 23:00N 45°24' E 012°18'2454.6 060 / 91030.3 19.0 22.0
2019-Sep-20 22:59N 45°26' E 012°18'0 0.0
2019-Sep-20 22:30N 45°26' E 012°18'1 2.8
2019-Sep-20 22:00N 45°26' E 012°20'2 4.2
2019-Sep-20 21:30N 45°26' E 012°23'4 8.0
2019-Sep-20 21:00N 45°24' E 012°28'5 9.2
2019-Sep-20 20:30N 45°22' E 012°34'511.0
2019-Sep-20 20:00N 45°24' E 012°42'611.2
2019-Sep-20 19:30N 45°25' E 012°49'612.8
2019-Sep-20 19:00N 45°28' E 012°58'713.3
2019-Sep-20 18:30N 45°30' E 013°07'613.0
2019-Sep-20 18:00N 45°32' E 013°16'611.1
2019-Sep-20 17:30N 45°34' E 013°23'510.9
2019-Sep-20 17:00N 45°36' E 013°30'11646.2
2019-Sep-20 17:00N 45°30' E 013°18'1531.8 080 / 171020.010.8 20.0 23.0
2019-Sep-20 16:30N 45°36' E 013°38'510.4
2019-Sep-20 16:00N 45°33' E 013°44'0 0.2
2019-Sep-20 15:29N 45°33' E 013°44'3 6.6
2019-Sep-20 15:00N 45°30' E 013°42'364.1 020 / 131026.010.8 20.0 21.5
2019-Sep-20 14:56N 45°33' E 013°44'0 0.0
2019-Sep-20 14:29N 45°33' E 013°44'0 0.0
2019-Sep-20 13:59N 45°33' E 013°44'0 0.0
2019-Sep-20 13:29N 45°33' E 013°44'0 0.0
2019-Sep-20 12:59N 45°33' E 013°44'0 0.0
2019-Sep-20 12:29N 45°33' E 013°44'0 0.0
2019-Sep-20 11:56N 45°33' E 013°44'0 0.0
2019-Sep-20 11:29N 45°33' E 013°44'0 0.0
2019-Sep-20 10:59N 45°33' E 013°44'0 0.0
2019-Sep-20 10:29N 45°33' E 013°44'0 0.0
2019-Sep-20 09:59N 45°33' E 013°44'0 0.0
2019-Sep-20 09:29N 45°33' E 013°44'0 0.0
2019-Sep-20 08:59N 45°33' E 013°44'0 0.0
2019-Sep-20 08:29N 45°33' E 013°44'0 0.0
2019-Sep-20 07:59N 45°33' E 013°44'0 0.0
2019-Sep-20 07:26N 45°33' E 013°44'3 7.3
2019-Sep-20 07:00N 45°30' E 013°42'332.6 090 / 181026.010.8 16.0 22.0
2019-Sep-20 06:53N 45°33' E 013°44'0 0.0
2019-Sep-20 06:29N 45°33' E 013°44'0 0.0
2019-Sep-20 05:59N 45°33' E 013°44'0 0.0
2019-Sep-20 05:30N 45°33' E 013°44'1 1.7
2019-Sep-20 05:00N 45°33' E 013°43'5 9.5
2019-Sep-20 04:30N 45°35' E 013°36'510.3
2019-Sep-20 04:00N 45°33' E 013°29'714.7
2019-Sep-20 03:30N 45°29' E 013°20'714.7
2019-Sep-20 03:00N 45°24' E 013°13'140.8
2019-Sep-20 03:00N 45°24' E 013°12'714.2 080 / 221016.010.8 18.0 21.0
2019-Sep-20 02:30N 45°17' E 013°13'815.8
2019-Sep-20 02:00N 45°09' E 013°15'815.7
2019-Sep-20 01:30N 45°02' E 013°20'815.4
2019-Sep-20 01:00N 44°55' E 013°25'715.1
2019-Sep-20 00:30N 44°49' E 013°30'815.3
2019-Sep-20 00:00N 44°42' E 013°35'815.7
2019-Sep-19 23:30N 44°36' E 013°41'815.7
2019-Sep-19 23:00N 44°29' E 013°47'815.7
2019-Sep-19 22:30N 44°23' E 013°54'12011.5
2019-Sep-19 12:00N 43°30' E 016°24'0 0.0 050 / 131016.0 23.0 24.0
2019-Sep-19 08:00N 43°30' E 016°24'0 0.0 040 / 61016.0 22.0 24.0
2019-Sep-19 06:00N 43°30' E 016°24'89 7.4 040 / 61016.0 20.0 24.0
2019-Sep-18 18:00N 42°36' E 018°00'0 0.0 1016.0 24.0 24.0
2019-Sep-18 08:00N 42°36' E 018°00'6 6.0 1016.0 26.0 23.0
2019-Sep-18 07:00N 42°42' E 018°00'9511.7 1016.010.8 25.0 26.0
2019-Sep-17 22:54N 41°12' E 018°39'4214.5
2019-Sep-17 20:00N 40°30' E 018°48'74 5.3 090 / 51016.010.8 24.0 25.0
2019-Sep-17 06:00N 39°36' E 019°54'23 7.6 090 / 41017.010.8 26.0 27.0
2019-Sep-17 03:00N 39°54' E 019°36'3718.3 100 / 101021.310.8 24.0 25.0
2019-Sep-17 01:00N 40°18' E 019°00'7318.3 360 / 81021.310.8 23.0 25.0
2019-Sep-16 21:00N 41°30' E 018°42'62 4.5 270 / 91019.010.8 24.0 25.0
2019-Sep-16 07:00N 42°24' E 018°00'5814.5 1019.010.8 25.0 24.0
2019-Sep-16 03:00N 42°30' E 016°42'5122.6 320 / 111027.310.8 23.0 25.0
2019-Sep-16 00:44N 42°47' E 015°37'7219.3
2019-Sep-15 21:00N 43°36' E 014°24'1518.5 1023.010.8 23.0 25.0
2019-Sep-15 20:11N 43°50' E 014°19'418.8
2019-Sep-15 20:00N 43°53' E 014°16'2518.8
2019-Sep-15 18:41N 44°13' E 013°56'318.6
2019-Sep-15 18:30N 44°16' E 013°53'918.8
2019-Sep-15 18:00N 44°24' E 013°46'918.8
2019-Sep-15 17:30N 44°32' E 013°39'918.7
2019-Sep-15 17:00N 44°39' E 013°32'918.9
2019-Sep-15 16:30N 44°47' E 013°25'918.6
2019-Sep-15 16:00N 44°55' E 013°17'918.7
2019-Sep-15 15:30N 45°01' E 013°07'918.6
2019-Sep-15 15:00N 45°08' E 012°57'918.6
2019-Sep-15 14:30N 45°14' E 012°47'918.3
2019-Sep-15 14:00N 45°19' E 012°37'816.6
2019-Sep-15 13:31N 45°24' E 012°28'4 7.7
2019-Sep-15 13:00N 45°26' E 012°23'2 4.4
2019-Sep-15 12:30N 45°26' E 012°20'1 1.7
2019-Sep-15 11:59N 45°26' E 012°18'0 0.0
2019-Sep-15 11:29N 45°26' E 012°18'0 0.0
2019-Sep-15 10:59N 45°26' E 012°18'0 0.0
2019-Sep-15 10:29N 45°26' E 012°18'0 0.0
2019-Sep-15 09:59N 45°26' E 012°18'0 0.0
2019-Sep-15 09:29N 45°26' E 012°18'0 0.0
2019-Sep-15 08:59N 45°26' E 012°18'0 0.0
2019-Sep-15 08:29N 45°26' E 012°18'0 0.0
2019-Sep-15 07:59N 45°26' E 012°18'0 0.0
2019-Sep-15 07:29N 45°26' E 012°18'2 4.3
2019-Sep-15 07:00N 45°24' E 012°18'2232.7 050 / 41025.0 23.0 25.0
2019-Sep-15 06:59N 45°26' E 012°18'0 0.0
2019-Sep-15 06:29N 45°26' E 012°18'0 0.0
2019-Sep-15 05:59N 45°26' E 012°18'0 0.0
2019-Sep-15 05:29N 45°26' E 012°18'0 0.0
2019-Sep-15 04:59N 45°26' E 012°18'0 0.0
2019-Sep-15 04:29N 45°26' E 012°18'2 4.3
2019-Sep-15 04:00N 45°24' E 012°18'2232.7 1026.010.8 20.0 25.0
2019-Sep-15 03:59N 45°26' E 012°18'0 0.0
2019-Sep-15 03:29N 45°26' E 012°18'0 0.0
2019-Sep-15 02:59N 45°26' E 012°18'0 0.0
2019-Sep-15 02:29N 45°26' E 012°18'0 0.0
2019-Sep-15 01:59N 45°26' E 012°18'0 0.0
2019-Sep-15 01:29N 45°26' E 012°18'0 0.0
2019-Sep-15 00:59N 45°26' E 012°18'0 0.0
2019-Sep-15 00:29N 45°26' E 012°18'0 0.0
2019-Sep-14 23:59N 45°26' E 012°18'0 0.0
2019-Sep-14 23:29N 45°26' E 012°18'0 0.0
2019-Sep-14 22:59N 45°26' E 012°18'0 0.0
2019-Sep-14 22:29N 45°26' E 012°18'0 0.0
2019-Sep-14 21:59N 45°26' E 012°18'0 0.0
2019-Sep-14 21:29N 45°26' E 012°18'2 4.3
2019-Sep-14 21:00N 45°24' E 012°18'2233.3 1028.0 25.0 25.0
2019-Sep-14 20:59N 45°26' E 012°18'0 0.0
2019-Sep-14 20:29N 45°26' E 012°18'0 0.0
2019-Sep-14 19:59N 45°26' E 012°18'0 0.0
2019-Sep-14 19:29N 45°26' E 012°18'2 4.4
2019-Sep-14 19:00N 45°24' E 012°18'2233.3 1028.0 24.0 25.0
2019-Sep-14 18:59N 45°26' E 012°18'0 0.0
2019-Sep-14 18:29N 45°26' E 012°18'0 0.0
2019-Sep-14 17:59N 45°26' E 012°18'0 0.0
2019-Sep-14 17:29N 45°26' E 012°18'0 0.0
2019-Sep-14 16:59N 45°26' E 012°18'0 0.0
2019-Sep-14 16:29N 45°26' E 012°18'0 0.0
2019-Sep-14 15:59N 45°26' E 012°18'0 0.0
2019-Sep-14 15:29N 45°26' E 012°18'0 0.0
2019-Sep-14 14:59N 45°26' E 012°18'0 0.0
2019-Sep-14 14:29N 45°26' E 012°18'0 0.0
2019-Sep-14 13:59N 45°26' E 012°18'0 0.0
2019-Sep-14 13:29N 45°26' E 012°18'0 0.0
2019-Sep-14 12:59N 45°26' E 012°18'0 0.0
2019-Sep-14 12:29N 45°26' E 012°18'0 0.0
2019-Sep-14 11:59N 45°26' E 012°18'0 0.0
2019-Sep-14 11:29N 45°26' E 012°18'0 0.0
2019-Sep-14 10:59N 45°26' E 012°18'0 0.0
2019-Sep-14 10:29N 45°26' E 012°18'0 0.0
2019-Sep-14 09:59N 45°26' E 012°18'0 0.0
2019-Sep-14 09:29N 45°26' E 012°18'0 0.0
2019-Sep-14 08:59N 45°26' E 012°18'0 0.0
2019-Sep-14 08:29N 45°26' E 012°18'2 4.3
2019-Sep-14 08:00N 45°24' E 012°18'2233.3 030 / 101028.0 23.0 25.0
2019-Sep-14 07:59N 45°26' E 012°18'0 0.0
2019-Sep-14 07:29N 45°26' E 012°18'0 0.0
2019-Sep-14 06:59N 45°26' E 012°18'0 0.0
2019-Sep-14 06:29N 45°26' E 012°18'2 4.3
2019-Sep-14 06:00N 45°24' E 012°18'2225.9 050 / 101028.0 21.0 24.0
2019-Sep-14 05:59N 45°26' E 012°18'0 0.0
2019-Sep-14 05:29N 45°26' E 012°18'0 0.0
2019-Sep-14 04:59N 45°26' E 012°18'0 0.0
2019-Sep-14 04:29N 45°26' E 012°18'2 4.3
2019-Sep-14 04:00N 45°24' E 012°18'2225.9 030 / 81031.310.8 20.0 24.0
2019-Sep-14 03:59N 45°26' E 012°18'0 0.0
2019-Sep-14 03:29N 45°26' E 012°18'0 0.0
2019-Sep-14 02:59N 45°26' E 012°18'0 0.0
2019-Sep-14 02:29N 45°26' E 012°18'0 0.0
2019-Sep-14 01:59N 45°26' E 012°18'0 0.0
2019-Sep-14 01:29N 45°26' E 012°18'0 0.0
2019-Sep-14 00:59N 45°26' E 012°18'0 0.0
2019-Sep-14 00:29N 45°26' E 012°18'0 0.0
2019-Sep-13 23:59N 45°26' E 012°18'0 0.0
2019-Sep-13 23:29N 45°26' E 012°18'0 0.0
2019-Sep-13 22:59N 45°26' E 012°18'0 0.0
2019-Sep-13 22:29N 45°26' E 012°18'0 0.0
2019-Sep-13 21:59N 45°26' E 012°18'0 0.0
2019-Sep-13 21:29N 45°26' E 012°18'2 4.4
2019-Sep-13 21:00N 45°24' E 012°18'2225.9 170 / 41028.0 24.0 26.0
2019-Sep-13 20:59N 45°26' E 012°18'0 0.0
2019-Sep-13 20:29N 45°26' E 012°18'2 4.4
2019-Sep-13 20:00N 45°24' E 012°18'2225.9 120 / 41028.0 24.0 26.0
2019-Sep-13 19:59N 45°26' E 012°18'0 0.0
2019-Sep-13 19:29N 45°26' E 012°18'0 0.0
2019-Sep-13 18:59N 45°26' E 012°18'0 0.0
2019-Sep-13 18:29N 45°26' E 012°18'0 0.0
2019-Sep-13 17:59N 45°26' E 012°18'0 0.0
2019-Sep-13 17:29N 45°26' E 012°18'0 0.0
2019-Sep-13 16:59N 45°26' E 012°18'0 0.0
2019-Sep-13 16:29N 45°26' E 012°18'0 0.0
2019-Sep-13 15:59N 45°26' E 012°18'0 0.0
2019-Sep-13 15:29N 45°26' E 012°18'0 0.0
2019-Sep-13 14:59N 45°26' E 012°18'0 0.0
2019-Sep-13 14:29N 45°26' E 012°18'0 0.0
2019-Sep-13 13:59N 45°26' E 012°18'0 0.0
2019-Sep-13 13:29N 45°26' E 012°18'0 0.0
2019-Sep-13 12:59N 45°26' E 012°18'0 0.0
2019-Sep-13 12:29N 45°26' E 012°18'0 0.0
2019-Sep-13 11:59N 45°26' E 012°18'0 0.0
2019-Sep-13 11:29N 45°26' E 012°18'0 0.0
2019-Sep-13 10:59N 45°26' E 012°18'0 0.3
2019-Sep-13 10:30N 45°26' E 012°18'2 4.0
2019-Sep-13 10:01N 45°26' E 012°21'2 4.7
2019-Sep-13 09:30N 45°26' E 012°25'3 6.2
2019-Sep-13 09:00N 45°24' E 012°28'510.1
2019-Sep-13 08:30N 45°20' E 012°32'611.9
2019-Sep-13 08:00N 45°15' E 012°36'714.3
2019-Sep-13 07:31N 45°10' E 012°44'714.4
2019-Sep-13 07:01N 45°05' E 012°50'714.7
2019-Sep-13 06:30N 44°58' E 012°54'715.0
2019-Sep-13 06:01N 44°51' E 012°58'815.0
2019-Sep-13 05:31N 44°44' E 013°02'815.2
2019-Sep-13 04:59N 44°37' E 013°06'715.3
2019-Sep-13 04:30N 44°30' E 013°10'815.6
2019-Sep-13 04:00N 44°22' E 013°13'5358.1
2019-Sep-13 04:00N 44°24' E 013°06'14818.5 060 / 131030.310.8 24.0 24.0
2019-Sep-12 20:00N 42°48' E 015°42'6716.8 360 / 231022.010.8 25.0 27.0
2019-Sep-12 16:00N 42°36' E 017°12'2626.5 270 / 271026.310.8 27.0 26.0
2019-Sep-12 15:00N 42°36' E 017°48'9 1.1 280 / 141026.310.8 27.0 26.0
2019-Sep-12 07:00N 42°36' E 018°00'47 9.3 090 / 81022.0 25.0 27.0
2019-Sep-12 02:00N 42°12' E 017°06'   330 / 61023.310.8 26.0 26.0
Track history (hours):
 
Tides and Currents Weather Stations Pressure Air Temp Water Temp Dewpoint Dewpoint Depression Visibility Wind Speed Wind Dir Waves Ship Positions

Crystal Serenity

Operator: Crystal Cruises

Last reported at 2019-Sep-21 23:23 UTC. Time now 2019-Sep-21 23:40 UTC.
Position N 45°26' E 012°18'.

Length 250 m; draft 7.5 m.

Type: Passenger vessel. MMSI: 311536000.

Date/timePositionNaut miles runAvg speedWind from/ knotsBaromVisibWave heightAir tempDewpointWater temp
2019-Sep-21 23:23N 45°26' E 012°18'0 0.0
2019-Sep-21 22:59N 45°26' E 012°18'0 0.0
2019-Sep-21 22:29N 45°26' E 012°18'0 0.0
2019-Sep-21 21:59N 45°26' E 012°18'0 0.0
2019-Sep-21 21:29N 45°26' E 012°18'2 4.3
2019-Sep-21 21:00N 45°24' E 012°18'2454.6 180 / 41023.0 19.0 22.0
2019-Sep-21 20:59N 45°26' E 012°18'0 0.0
2019-Sep-21 20:29N 45°26' E 012°18'0 0.0
2019-Sep-21 19:59N 45°26' E 012°18'0 0.0
2019-Sep-21 19:29N 45°26' E 012°18'0 0.0
2019-Sep-21 18:59N 45°26' E 012°18'0 0.0
2019-Sep-21 18:29N 45°26' E 012°18'0 0.0
2019-Sep-21 17:59N 45°26' E 012°18'0 0.0
2019-Sep-21 17:29N 45°26' E 012°18'0 0.0
2019-Sep-21 16:59N 45°26' E 012°18'0 0.0
2019-Sep-21 16:29N 45°26' E 012°18'0 0.0
2019-Sep-21 15:59N 45°26' E 012°18'0 0.0
2019-Sep-21 15:29N 45°26' E 012°18'0 0.0
2019-Sep-21 14:59N 45°26' E 012°18'0 0.0
2019-Sep-21 14:29N 45°26' E 012°18'0 0.0
2019-Sep-21 13:59N 45°26' E 012°18'0 0.0
2019-Sep-21 13:29N 45°26' E 012°18'0 0.0
2019-Sep-21 12:59N 45°26' E 012°18'0 0.0
2019-Sep-21 12:29N 45°26' E 012°18'0 0.0
2019-Sep-21 11:59N 45°26' E 012°18'0 0.0
2019-Sep-21 11:29N 45°26' E 012°18'0 0.0
2019-Sep-21 10:59N 45°26' E 012°18'0 0.0
2019-Sep-21 10:29N 45°26' E 012°18'0 0.0
2019-Sep-21 09:59N 45°26' E 012°18'0 0.0
2019-Sep-21 09:29N 45°26' E 012°18'0 0.0
2019-Sep-21 08:59N 45°26' E 012°18'0 0.0
2019-Sep-21 08:29N 45°26' E 012°18'0 0.0
2019-Sep-21 07:59N 45°26' E 012°18'0 0.0
2019-Sep-21 07:29N 45°26' E 012°18'0 0.0
2019-Sep-21 06:59N 45°26' E 012°18'0 0.0
2019-Sep-21 06:29N 45°26' E 012°18'0 0.0
2019-Sep-21 05:59N 45°26' E 012°18'0 0.0
2019-Sep-21 05:29N 45°26' E 012°18'0 0.0
2019-Sep-21 04:59N 45°26' E 012°18'0 0.0
2019-Sep-21 04:29N 45°26' E 012°18'0 0.0
2019-Sep-21 03:59N 45°26' E 012°18'0 0.0
2019-Sep-21 03:29N 45°26' E 012°18'0 0.0
2019-Sep-21 02:59N 45°26' E 012°18'0 0.0
2019-Sep-21 02:29N 45°26' E 012°18'0 0.0
2019-Sep-21 01:59N 45°26' E 012°18'0 0.0
2019-Sep-21 01:29N 45°26' E 012°18'0 0.0
2019-Sep-21 00:59N 45°26' E 012°18'0 0.0
2019-Sep-21 00:29N 45°26' E 012°18'0 0.0
2019-Sep-20 23:59N 45°26' E 012°18'0 0.0
2019-Sep-20 23:29N 45°26' E 012°18'2 4.3
2019-Sep-20 23:00N 45°24' E 012°18'2454.6 060 / 91030.3 19.0 22.0
2019-Sep-20 22:59N 45°26' E 012°18'0 0.0
2019-Sep-20 22:30N 45°26' E 012°18'1 2.8
2019-Sep-20 22:00N 45°26' E 012°20'2 4.2
2019-Sep-20 21:30N 45°26' E 012°23'4 8.0
2019-Sep-20 21:00N 45°24' E 012°28'5 9.2
2019-Sep-20 20:30N 45°22' E 012°34'511.0
2019-Sep-20 20:00N 45°24' E 012°42'611.2
2019-Sep-20 19:30N 45°25' E 012°49'612.8
2019-Sep-20 19:00N 45°28' E 012°58'713.3
2019-Sep-20 18:30N 45°30' E 013°07'613.0
2019-Sep-20 18:00N 45°32' E 013°16'611.1
2019-Sep-20 17:30N 45°34' E 013°23'510.9
2019-Sep-20 17:00N 45°36' E 013°30'11646.2
2019-Sep-20 17:00N 45°30' E 013°18'1531.8 080 / 171020.010.8 20.0 23.0
2019-Sep-20 16:30N 45°36' E 013°38'510.4
2019-Sep-20 16:00N 45°33' E 013°44'0 0.2
2019-Sep-20 15:29N 45°33' E 013°44'3 6.6
2019-Sep-20 15:00N 45°30' E 013°42'364.1 020 / 131026.010.8 20.0 21.5
2019-Sep-20 14:56N 45°33' E 013°44'0 0.0
2019-Sep-20 14:29N 45°33' E 013°44'0 0.0
2019-Sep-20 13:59N 45°33' E 013°44'0 0.0
2019-Sep-20 13:29N 45°33' E 013°44'0 0.0
2019-Sep-20 12:59N 45°33' E 013°44'0 0.0
2019-Sep-20 12:29N 45°33' E 013°44'0 0.0
2019-Sep-20 11:56N 45°33' E 013°44'0 0.0
2019-Sep-20 11:29N 45°33' E 013°44'0 0.0
2019-Sep-20 10:59N 45°33' E 013°44'0 0.0
2019-Sep-20 10:29N 45°33' E 013°44'0 0.0
2019-Sep-20 09:59N 45°33' E 013°44'0 0.0
2019-Sep-20 09:29N 45°33' E 013°44'0 0.0
2019-Sep-20 08:59N 45°33' E 013°44'0 0.0
2019-Sep-20 08:29N 45°33' E 013°44'0 0.0
2019-Sep-20 07:59N 45°33' E 013°44'0 0.0
2019-Sep-20 07:26N 45°33' E 013°44'3 7.3
2019-Sep-20 07:00N 45°30' E 013°42'332.6 090 / 181026.010.8 16.0 22.0
2019-Sep-20 06:53N 45°33' E 013°44'0 0.0
2019-Sep-20 06:29N 45°33' E 013°44'0 0.0
2019-Sep-20 05:59N 45°33' E 013°44'0 0.0
2019-Sep-20 05:30N 45°33' E 013°44'1 1.7
2019-Sep-20 05:00N 45°33' E 013°43'5 9.5
2019-Sep-20 04:30N 45°35' E 013°36'510.3
2019-Sep-20 04:00N 45°33' E 013°29'714.7
2019-Sep-20 03:30N 45°29' E 013°20'714.7
2019-Sep-20 03:00N 45°24' E 013°13'140.8
2019-Sep-20 03:00N 45°24' E 013°12'714.2 080 / 221016.010.8 18.0 21.0
2019-Sep-20 02:30N 45°17' E 013°13'815.8
2019-Sep-20 02:00N 45°09' E 013°15'815.7
2019-Sep-20 01:30N 45°02' E 013°20'815.4
2019-Sep-20 01:00N 44°55' E 013°25'715.1
2019-Sep-20 00:30N 44°49' E 013°30'815.3
2019-Sep-20 00:00N 44°42' E 013°35'815.7
2019-Sep-19 23:30N 44°36' E 013°41'815.7
2019-Sep-19 23:00N 44°29' E 013°47'815.7
2019-Sep-19 22:30N 44°23' E 013°54'12011.5
2019-Sep-19 12:00N 43°30' E 016°24'0 0.0 050 / 131016.0 23.0 24.0
2019-Sep-19 08:00N 43°30' E 016°24'0 0.0 040 / 61016.0 22.0 24.0
2019-Sep-19 06:00N 43°30' E 016°24'89 7.4 040 / 61016.0 20.0 24.0
2019-Sep-18 18:00N 42°36' E 018°00'0 0.0 1016.0 24.0 24.0
2019-Sep-18 08:00N 42°36' E 018°00'6 6.0 1016.0 26.0 23.0
2019-Sep-18 07:00N 42°42' E 018°00'9511.7 1016.010.8 25.0 26.0
2019-Sep-17 22:54N 41°12' E 018°39'4214.5
2019-Sep-17 20:00N 40°30' E 018°48'74 5.3 090 / 51016.010.8 24.0 25.0
2019-Sep-17 06:00N 39°36' E 019°54'23 7.6 090 / 41017.010.8 26.0 27.0
2019-Sep-17 03:00N 39°54' E 019°36'3718.3 100 / 101021.310.8 24.0 25.0
2019-Sep-17 01:00N 40°18' E 019°00'7318.3 360 / 81021.310.8 23.0 25.0
2019-Sep-16 21:00N 41°30' E 018°42'62 4.5 270 / 91019.010.8 24.0 25.0
2019-Sep-16 07:00N 42°24' E 018°00'5814.5 1019.010.8 25.0 24.0
2019-Sep-16 03:00N 42°30' E 016°42'5122.6 320 / 111027.310.8 23.0 25.0
2019-Sep-16 00:44N 42°47' E 015°37'7219.3
2019-Sep-15 21:00N 43°36' E 014°24'1518.5 1023.010.8 23.0 25.0
2019-Sep-15 20:11N 43°50' E 014°19'418.8
2019-Sep-15 20:00N 43°53' E 014°16'2518.8
2019-Sep-15 18:41N 44°13' E 013°56'318.6
2019-Sep-15 18:30N 44°16' E 013°53'918.8
2019-Sep-15 18:00N 44°24' E 013°46'918.8
2019-Sep-15 17:30N 44°32' E 013°39'918.7
2019-Sep-15 17:00N 44°39' E 013°32'918.9
2019-Sep-15 16:30N 44°47' E 013°25'918.6
2019-Sep-15 16:00N 44°55' E 013°17'918.7
2019-Sep-15 15:30N 45°01' E 013°07'918.6
2019-Sep-15 15:00N 45°08' E 012°57'918.6
2019-Sep-15 14:30N 45°14' E 012°47'918.3
2019-Sep-15 14:00N 45°19' E 012°37'816.6
2019-Sep-15 13:31N 45°24' E 012°28'4 7.7
2019-Sep-15 13:00N 45°26' E 012°23'2 4.4
2019-Sep-15 12:30N 45°26' E 012°20'1 1.7
2019-Sep-15 11:59N 45°26' E 012°18'0 0.0
2019-Sep-15 11:29N 45°26' E 012°18'0 0.0
2019-Sep-15 10:59N 45°26' E 012°18'0 0.0
2019-Sep-15 10:29N 45°26' E 012°18'0 0.0
2019-Sep-15 09:59N 45°26' E 012°18'0 0.0
2019-Sep-15 09:29N 45°26' E 012°18'0 0.0
2019-Sep-15 08:59N 45°26' E 012°18'0 0.0
2019-Sep-15 08:29N 45°26' E 012°18'0 0.0
2019-Sep-15 07:59N 45°26' E 012°18'0 0.0
2019-Sep-15 07:29N 45°26' E 012°18'2 4.3
2019-Sep-15 07:00N 45°24' E 012°18'2232.7 050 / 41025.0 23.0 25.0
2019-Sep-15 06:59N 45°26' E 012°18'0 0.0
2019-Sep-15 06:29N 45°26' E 012°18'0 0.0
2019-Sep-15 05:59N 45°26' E 012°18'0 0.0
2019-Sep-15 05:29N 45°26' E 012°18'0 0.0
2019-Sep-15 04:59N 45°26' E 012°18'0 0.0
2019-Sep-15 04:29N 45°26' E 012°18'2 4.3
2019-Sep-15 04:00N 45°24' E 012°18'2232.7 1026.010.8 20.0 25.0
2019-Sep-15 03:59N 45°26' E 012°18'0 0.0
2019-Sep-15 03:29N 45°26' E 012°18'0 0.0
2019-Sep-15 02:59N 45°26' E 012°18'0 0.0
2019-Sep-15 02:29N 45°26' E 012°18'0 0.0
2019-Sep-15 01:59N 45°26' E 012°18'0 0.0
2019-Sep-15 01:29N 45°26' E 012°18'0 0.0
2019-Sep-15 00:59N 45°26' E 012°18'0 0.0
2019-Sep-15 00:29N 45°26' E 012°18'0 0.0
2019-Sep-14 23:59N 45°26' E 012°18'0 0.0
2019-Sep-14 23:29N 45°26' E 012°18'0 0.0
2019-Sep-14 22:59N 45°26' E 012°18'0 0.0
2019-Sep-14 22:29N 45°26' E 012°18'0 0.0
2019-Sep-14 21:59N 45°26' E 012°18'0 0.0
2019-Sep-14 21:29N 45°26' E 012°18'2 4.3
2019-Sep-14 21:00N 45°24' E 012°18'2233.3 1028.0 25.0 25.0
2019-Sep-14 20:59N 45°26' E 012°18'0 0.0
2019-Sep-14 20:29N 45°26' E 012°18'0 0.0
2019-Sep-14 19:59N 45°26' E 012°18'0 0.0
2019-Sep-14 19:29N 45°26' E 012°18'2 4.4
2019-Sep-14 19:00N 45°24' E 012°18'2233.3 1028.0 24.0 25.0
2019-Sep-14 18:59N 45°26' E 012°18'0 0.0
2019-Sep-14 18:29N 45°26' E 012°18'0 0.0
2019-Sep-14 17:59N 45°26' E 012°18'0 0.0
2019-Sep-14 17:29N 45°26' E 012°18'0 0.0
2019-Sep-14 16:59N 45°26' E 012°18'0 0.0
2019-Sep-14 16:29N 45°26' E 012°18'0 0.0
2019-Sep-14 15:59N 45°26' E 012°18'0 0.0
2019-Sep-14 15:29N 45°26' E 012°18'0 0.0
2019-Sep-14 14:59N 45°26' E 012°18'0 0.0
2019-Sep-14 14:29N 45°26' E 012°18'0 0.0
2019-Sep-14 13:59N 45°26' E 012°18'0 0.0
2019-Sep-14 13:29N 45°26' E 012°18'0 0.0
2019-Sep-14 12:59N 45°26' E 012°18'0 0.0
2019-Sep-14 12:29N 45°26' E 012°18'0 0.0
2019-Sep-14 11:59N 45°26' E 012°18'0 0.0
2019-Sep-14 11:29N 45°26' E 012°18'0 0.0
2019-Sep-14 10:59N 45°26' E 012°18'0 0.0
2019-Sep-14 10:29N 45°26' E 012°18'0 0.0
2019-Sep-14 09:59N 45°26' E 012°18'0 0.0
2019-Sep-14 09:29N 45°26' E 012°18'0 0.0
2019-Sep-14 08:59N 45°26' E 012°18'0 0.0
2019-Sep-14 08:29N 45°26' E 012°18'2 4.3
2019-Sep-14 08:00N 45°24' E 012°18'2233.3 030 / 101028.0 23.0 25.0
2019-Sep-14 07:59N 45°26' E 012°18'0 0.0
2019-Sep-14 07:29N 45°26' E 012°18'0 0.0
2019-Sep-14 06:59N 45°26' E 012°18'0 0.0
2019-Sep-14 06:29N 45°26' E 012°18'2 4.3
2019-Sep-14 06:00N 45°24' E 012°18'2225.9 050 / 101028.0 21.0 24.0
2019-Sep-14 05:59N 45°26' E 012°18'0 0.0
2019-Sep-14 05:29N 45°26' E 012°18'0 0.0
2019-Sep-14 04:59N 45°26' E 012°18'0 0.0
2019-Sep-14 04:29N 45°26' E 012°18'2 4.3
2019-Sep-14 04:00N 45°24' E 012°18'2225.9 030 / 81031.310.8 20.0 24.0
2019-Sep-14 03:59N 45°26' E 012°18'0 0.0
2019-Sep-14 03:29N 45°26' E 012°18'0 0.0
2019-Sep-14 02:59N 45°26' E 012°18'0 0.0
2019-Sep-14 02:29N 45°26' E 012°18'0 0.0
2019-Sep-14 01:59N 45°26' E 012°18'0 0.0
2019-Sep-14 01:29N 45°26' E 012°18'0 0.0
2019-Sep-14 00:59N 45°26' E 012°18'0 0.0
2019-Sep-14 00:29N 45°26' E 012°18'0 0.0
2019-Sep-13 23:59N 45°26' E 012°18'0 0.0
2019-Sep-13 23:29N 45°26' E 012°18'0 0.0
2019-Sep-13 22:59N 45°26' E 012°18'0 0.0
2019-Sep-13 22:29N 45°26' E 012°18'0 0.0
2019-Sep-13 21:59N 45°26' E 012°18'0 0.0
2019-Sep-13 21:29N 45°26' E 012°18'2 4.4
2019-Sep-13 21:00N 45°24' E 012°18'2225.9 170 / 41028.0 24.0 26.0
2019-Sep-13 20:59N 45°26' E 012°18'0 0.0
2019-Sep-13 20:29N 45°26' E 012°18'2 4.4
2019-Sep-13 20:00N 45°24' E 012°18'2225.9 120 / 41028.0 24.0 26.0
2019-Sep-13 19:59N 45°26' E 012°18'0 0.0
2019-Sep-13 19:29N 45°26' E 012°18'0 0.0
2019-Sep-13 18:59N 45°26' E 012°18'0 0.0
2019-Sep-13 18:29N 45°26' E 012°18'0 0.0
2019-Sep-13 17:59N 45°26' E 012°18'0 0.0
2019-Sep-13 17:29N 45°26' E 012°18'0 0.0
2019-Sep-13 16:59N 45°26' E 012°18'0 0.0
2019-Sep-13 16:29N 45°26' E 012°18'0 0.0
2019-Sep-13 15:59N 45°26' E 012°18'0 0.0
2019-Sep-13 15:29N 45°26' E 012°18'0 0.0
2019-Sep-13 14:59N 45°26' E 012°18'0 0.0
2019-Sep-13 14:29N 45°26' E 012°18'0 0.0
2019-Sep-13 13:59N 45°26' E 012°18'0 0.0
2019-Sep-13 13:29N 45°26' E 012°18'0 0.0
2019-Sep-13 12:59N 45°26' E 012°18'0 0.0
2019-Sep-13 12:29N 45°26' E 012°18'0 0.0
2019-Sep-13 11:59N 45°26' E 012°18'0 0.0
2019-Sep-13 11:29N 45°26' E 012°18'0 0.0
2019-Sep-13 10:59N 45°26' E 012°18'0 0.3
2019-Sep-13 10:30N 45°26' E 012°18'2 4.0
2019-Sep-13 10:01N 45°26' E 012°21'2 4.7
2019-Sep-13 09:30N 45°26' E 012°25'3 6.2
2019-Sep-13 09:00N 45°24' E 012°28'510.1
2019-Sep-13 08:30N 45°20' E 012°32'611.9
2019-Sep-13 08:00N 45°15' E 012°36'714.3
2019-Sep-13 07:31N 45°10' E 012°44'714.4
2019-Sep-13 07:01N 45°05' E 012°50'714.7
2019-Sep-13 06:30N 44°58' E 012°54'715.0
2019-Sep-13 06:01N 44°51' E 012°58'815.0
2019-Sep-13 05:31N 44°44' E 013°02'815.2
2019-Sep-13 04:59N 44°37' E 013°06'715.3
2019-Sep-13 04:30N 44°30' E 013°10'815.6
2019-Sep-13 04:00N 44°22' E 013°13'5358.1
2019-Sep-13 04:00N 44°24' E 013°06'14818.5 060 / 131030.310.8 24.0 24.0
2019-Sep-12 20:00N 42°48' E 015°42'6716.8 360 / 231022.010.8 25.0 27.0
2019-Sep-12 16:00N 42°36' E 017°12'2626.5 270 / 271026.310.8 27.0 26.0
2019-Sep-12 15:00N 42°36' E 017°48'9 1.1 280 / 141026.310.8 27.0 26.0
2019-Sep-12 07:00N 42°36' E 018°00'47 9.3 090 / 81022.0 25.0 27.0
2019-Sep-12 02:00N 42°12' E 017°06'   330 / 61023.310.8 26.0 26.0

Dump ship's entire track history